Time;durP1;ratioP1;P1;durP2;ratioP2;P2;SDS_P1;SDS_P2;PMS_P1;PMS_P2;Temp;Humidity;BMP_temperature;BMP_pressure;BME280_temperature;BME280_humidity;BME280_pressure;Samples;Min_cycle;Max_cycle;Signal;HPM_P1;HPM_P2
2021/04/17 00:02:33;;;;;;;8.38;5.60;;;;;;;;;;5074555;28;20194;-55
2021/04/17 00:05:00;;;;;;;8.45;5.30;;;;;;;;;;5074042;28;20245;-60
2021/04/17 00:07:26;;;;;;;11.38;6.57;;;;;;;;;;5074829;28;20217;-55
2021/04/17 00:09:54;;;;;;;9.43;5.47;;;;;;;;;;5075323;28;20206;-56
2021/04/17 00:12:22;;;;;;;9.57;4.97;;;;;;;;;;5057204;28;20233;-52
2021/04/17 00:14:51;;;;;;;10.88;5.90;;;;;;;;;;5095214;28;20239;-57
2021/04/17 00:17:29;;;;;;;11.23;6.18;;;;;;;;;;5095411;28;20212;-54
2021/04/17 00:19:56;;;;;;;9.65;5.35;;;;;;;;;;5095327;28;20287;-52
2021/04/17 00:22:23;;;;;;;9.35;5.70;;;;;;;;;;5093857;28;20281;-57
2021/04/17 00:24:50;;;;;;;8.80;5.22;;;;;;;;;;5087113;28;20321;-52
2021/04/17 00:27:17;;;;;;;13.02;5.80;;;;;;;;;;5085383;28;20210;-54
2021/04/17 00:29:44;;;;;;;11.55;5.72;;;;;;;;;;5094213;28;20261;-50
2021/04/17 00:32:17;;;;;;;8.93;5.72;;;;;;;;;;5093851;28;20209;-55
2021/04/17 00:34:44;;;;;;;8.02;5.90;;;;;;;;;;5094211;28;20260;-58
2021/04/17 00:37:11;;;;;;;8.40;5.72;;;;;;;;;;5094369;28;20205;-54
2021/04/17 00:39:44;;;;;;;8.70;6.28;;;;;;;;;;5084003;28;20210;-57
2021/04/17 00:42:11;;;;;;;10.25;5.82;;;;;;;;;;5076474;28;21241;-56
2021/04/17 00:44:38;;;;;;;9.68;5.85;;;;;;;;;;5094025;28;20232;-53
2021/04/17 00:47:07;;;;;;;8.63;6.07;;;;;;;;;;5094265;28;20210;-56
2021/04/17 00:49:35;;;;;;;9.13;5.63;;;;;;;;;;5094475;28;20213;-52
2021/04/17 00:52:02;;;;;;;9.02;6.15;;;;;;;;;;5094025;28;20280;-54
2021/04/17 00:54:48;;;;;;;9.23;5.03;;;;;;;;;;5094199;28;20202;-52
2021/04/17 00:57:14;;;;;;;11.27;6.43;;;;;;;;;;5094519;28;20253;-52
2021/04/17 00:59:41;;;;;;;9.32;6.93;;;;;;;;;;5094327;28;20209;-55
2021/04/17 01:02:13;;;;;;;10.40;6.32;;;;;;;;;;5094411;28;20194;-55
2021/04/17 01:04:43;;;;;;;8.45;5.20;;;;;;;;;;5094665;28;20447;-53
2021/04/17 01:07:16;;;;;;;9.52;5.20;;;;;;;;;;5094454;28;20289;-51
2021/04/17 01:10:06;;;;;;;8.60;5.45;;;;;;;;;;5094700;28;20190;-53
2021/04/17 01:12:34;;;;;;;7.70;5.82;;;;;;;;;;5099069;28;20593;-52
2021/04/17 01:15:01;;;;;;;8.18;4.57;;;;;;;;;;5117200;28;20194;-50
2021/04/17 01:17:28;;;;;;;8.20;5.43;;;;;;;;;;5080580;28;20190;-52
2021/04/17 01:20:02;;;;;;;11.27;4.75;;;;;;;;;;5098136;28;20206;-55
2021/04/17 01:22:29;;;;;;;10.35;5.45;;;;;;;;;;5098136;28;20269;-57
2021/04/17 01:25:00;;;;;;;10.70;5.72;;;;;;;;;;5097907;28;20240;-54
2021/04/17 01:27:33;;;;;;;9.50;6.38;;;;;;;;;;5098056;28;20210;-50
2021/04/17 01:30:00;;;;;;;15.18;5.72;;;;;;;;;;5097684;28;20213;-50
2021/04/17 01:32:29;;;;;;;11.43;5.90;;;;;;;;;;5097059;28;20224;-53
2021/04/17 01:35:04;;;;;;;9.93;5.60;;;;;;;;;;5097197;28;20205;-56
2021/04/17 01:37:58;;;;;;;12.38;5.90;;;;;;;;;;5097298;28;20213;-52
2021/04/17 01:40:25;;;;;;;9.88;6.10;;;;;;;;;;5097719;28;20198;-59
2021/04/17 01:43:12;;;;;;;9.52;6.03;;;;;;;;;;5098154;28;20198;-52
2021/04/17 01:45:42;;;;;;;10.43;5.70;;;;;;;;;;5097799;28;20206;-51
2021/04/17 01:48:09;;;;;;;20.50;6.75;;;;;;;;;;5097823;28;20183;-54
2021/04/17 01:50:43;;;;;;;8.45;5.30;;;;;;;;;;5097566;28;20296;-50
2021/04/17 01:53:12;;;;;;;9.52;5.78;;;;;;;;;;5092942;28;20203;-57
2021/04/17 01:55:39;;;;;;;10.55;5.55;;;;;;;;;;5099925;28;20564;-56
2021/04/17 01:58:09;;;;;;;6.55;4.82;;;;;;;;;;5114077;28;20194;-52
2021/04/17 02:00:36;;;;;;;8.85;5.35;;;;;;;;;;5086789;28;20199;-54
2021/04/17 02:03:04;;;;;;;12.90;5.18;;;;;;;;;;5082219;28;20218;-54
2021/04/17 02:06:01;;;;;;;7.82;5.43;;;;;;;;;;5097768;28;20208;-53
2021/04/17 02:08:28;;;;;;;9.68;5.90;;;;;;;;;;5098445;28;20194;-53
2021/04/17 02:10:55;;;;;;;10.27;5.47;;;;;;;;;;5098502;28;20221;-53
2021/04/17 02:13:24;;;;;;;11.07;6.03;;;;;;;;;;5092326;28;20241;-56
2021/04/17 02:15:52;;;;;;;8.32;4.43;;;;;;;;;;5077474;28;20233;-50
2021/04/17 02:18:42;;;;;;;10.05;5.95;;;;;;;;;;5076875;28;20317;-57
2021/04/17 02:21:11;;;;;;;7.75;5.50;;;;;;;;;;5077100;28;20218;-54
2021/04/17 02:23:38;;;;;;;9.10;5.55;;;;;;;;;;5070593;28;20219;-53
2021/04/17 02:26:36;;;;;;;9.25;6.22;;;;;;;;;;5056719;28;20245;-49
2021/04/17 02:29:03;;;;;;;9.60;5.43;;;;;;;;;;5086250;28;20218;-59
2021/04/17 02:31:30;;;;;;;9.95;5.40;;;;;;;;;;5096483;28;20294;-51
2021/04/17 02:34:22;;;;;;;9.50;5.45;;;;;;;;;;5096743;28;20206;-53
2021/04/17 02:36:50;;;;;;;8.40;5.45;;;;;;;;;;5095655;28;20562;-52
2021/04/17 02:39:17;;;;;;;7.75;4.90;;;;;;;;;;5079175;28;20185;-57
2021/04/17 02:41:54;;;;;;;15.18;6.15;;;;;;;;;;5096456;28;20245;-54
2021/04/17 02:44:21;;;;;;;12.75;5.45;;;;;;;;;;5096411;28;20217;-54
2021/04/17 02:46:48;;;;;;;9.35;5.18;;;;;;;;;;5096856;28;20202;-60
2021/04/17 02:49:24;;;;;;;9.20;5.32;;;;;;;;;;5096434;28;20198;-52
2021/04/17 02:51:52;;;;;;;10.40;5.90;;;;;;;;;;5096086;28;20189;-51
2021/04/17 02:54:19;;;;;;;9.65;5.05;;;;;;;;;;5096061;28;20197;-50
2021/04/17 02:56:51;;;;;;;9.50;5.70;;;;;;;;;;5096098;28;20194;-53
2021/04/17 02:59:18;;;;;;;15.63;6.07;;;;;;;;;;5096404;28;20227;-53
2021/04/17 03:01:45;;;;;;;7.90;4.18;;;;;;;;;;5096893;28;20198;-56
2021/04/17 03:04:12;;;;;;;8.73;5.45;;;;;;;;;;5095701;28;20233;-50
2021/04/17 03:06:38;;;;;;;11.52;5.20;;;;;;;;;;5095720;28;20229;-53
2021/04/17 03:09:06;;;;;;;9.32;5.75;;;;;;;;;;5096489;28;20208;-53
2021/04/17 03:11:35;;;;;;;8.02;5.32;;;;;;;;;;5095808;28;20214;-55
2021/04/17 03:14:02;;;;;;;10.82;4.93;;;;;;;;;;5095876;28;20206;-50
2021/04/17 03:16:29;;;;;;;10.20;5.40;;;;;;;;;;5095734;28;20223;-55
2021/04/17 03:19:11;;;;;;;8.52;5.25;;;;;;;;;;5095301;28;20205;-53
2021/04/17 03:21:38;;;;;;;8.07;4.78;;;;;;;;;;5095856;28;20228;-56
2021/04/17 03:24:06;;;;;;;10.18;5.85;;;;;;;;;;5095930;28;20222;-50
2021/04/17 03:26:33;;;;;;;10.48;6.70;;;;;;;;;;5095713;28;20214;-52
2021/04/17 03:29:00;;;;;;;9.15;5.40;;;;;;;;;;5109526;28;20217;-54
2021/04/17 03:31:27;;;;;;;6.47;4.13;;;;;;;;;;5116101;28;20193;-50
2021/04/17 03:33:53;;;;;;;11.20;5.07;;;;;;;;;;5113414;28;20224;-54
2021/04/17 03:36:20;;;;;;;9.13;4.10;;;;;;;;;;5095596;28;20201;-54
2021/04/17 03:38:50;;;;;;;9.10;4.63;;;;;;;;;;5095648;28;20205;-49
2021/04/17 03:41:18;;;;;;;8.32;4.90;;;;;;;;;;5095784;28;20210;-49
2021/04/17 03:43:45;;;;;;;8.07;4.30;;;;;;;;;;5095238;28;20221;-58
2021/04/17 03:46:12;;;;;;;9.48;5.00;;;;;;;;;;5113450;28;20209;-56
2021/04/17 03:48:39;;;;;;;9.10;4.93;;;;;;;;;;5115999;28;20190;-53
2021/04/17 03:51:23;;;;;;;8.40;4.00;;;;;;;;;;5115636;28;20192;-51
2021/04/17 03:53:53;;;;;;;8.27;3.95;;;;;;;;;;5115853;28;20215;-50
2021/04/17 03:56:21;;;;;;;7.97;3.67;;;;;;;;;;5115981;28;20209;-51
2021/04/17 03:59:12;;;;;;;5.57;4.07;;;;;;;;;;5115592;28;20209;-55
2021/04/17 04:01:39;;;;;;;6.35;3.75;;;;;;;;;;5115735;28;20204;-52
2021/04/17 04:04:06;;;;;;;10.95;6.65;;;;;;;;;;5108667;28;20213;-48
2021/04/17 04:06:34;;;;;;;10.88;4.53;;;;;;;;;;5096341;28;20631;-57
2021/04/17 04:09:01;;;;;;;8.77;4.90;;;;;;;;;;5095924;28;20217;-54
2021/04/17 04:11:28;;;;;;;8.35;3.90;;;;;;;;;;5094093;28;20205;-55
2021/04/17 04:13:57;;;;;;;6.35;4.10;;;;;;;;;;5115491;28;20204;-55
2021/04/17 04:16:24;;;;;;;7.70;4.50;;;;;;;;;;5115028;28;20208;-55
2021/04/17 04:18:51;;;;;;;5.45;3.72;;;;;;;;;;5115586;28;20204;-50
2021/04/17 04:21:18;;;;;;;7.85;4.15;;;;;;;;;;5110542;28;20201;-55
2021/04/17 04:23:45;;;;;;;7.45;3.80;;;;;;;;;;5115160;28;20233;-56
2021/04/17 04:26:12;;;;;;;7.75;4.10;;;;;;;;;;5115049;28;20205;-56
2021/04/17 04:28:40;;;;;;;7.38;4.25;;;;;;;;;;5111691;28;20221;-54
2021/04/17 04:31:07;;;;;;;5.80;3.85;;;;;;;;;;5115226;28;20213;-57
2021/04/17 04:33:35;;;;;;;6.57;4.25;;;;;;;;;;5093458;28;20206;-57
2021/04/17 04:36:02;;;;;;;6.97;4.10;;;;;;;;;;5074698;28;20207;-50
2021/04/17 04:38:29;;;;;;;8.82;3.65;;;;;;;;;;5074644;28;20217;-57
2021/04/17 04:40:58;;;;;;;6.20;4.05;;;;;;;;;;5074284;28;20213;-56
2021/04/17 04:43:25;;;;;;;6.35;4.10;;;;;;;;;;5074820;28;20215;-52
2021/04/17 04:45:55;;;;;;;8.52;3.60;;;;;;;;;;5083419;28;20217;-55
2021/04/17 04:48:22;;;;;;;7.57;3.60;;;;;;;;;;5118841;28;20201;-58
2021/04/17 04:50:49;;;;;;;6.45;3.92;;;;;;;;;;5119488;28;20190;-59
2021/04/17 04:53:16;;;;;;;8.40;4.50;;;;;;;;;;5118935;28;20209;-53
2021/04/17 04:55:43;;;;;;;11.00;4.43;;;;;;;;;;5112759;28;20214;-59
2021/04/17 04:58:10;;;;;;;8.10;3.60;;;;;;;;;;5098751;28;20212;-50
2021/04/17 05:00:38;;;;;;;6.80;3.75;;;;;;;;;;5098482;28;20186;-52
2021/04/17 05:03:06;;;;;;;6.72;3.63;;;;;;;;;;5097857;28;20213;-55
2021/04/17 05:05:33;;;;;;;6.10;4.40;;;;;;;;;;5098305;28;20228;-56
2021/04/17 05:08:01;;;;;;;6.22;3.72;;;;;;;;;;5098343;28;20206;-49
2021/04/17 05:10:28;;;;;;;6.25;4.05;;;;;;;;;;5098166;28;20205;-50
2021/04/17 05:12:56;;;;;;;6.00;3.45;;;;;;;;;;5118560;28;20197;-53
2021/04/17 05:15:38;;;;;;;8.40;4.10;;;;;;;;;;5118712;28;20292;-51
2021/04/17 05:18:06;;;;;;;9.30;4.22;;;;;;;;;;5102625;28;20201;-58
2021/04/17 05:20:32;;;;;;;6.63;3.55;;;;;;;;;;5098269;28;20228;-52
2021/04/17 05:23:34;;;;;;;12.13;3.90;;;;;;;;;;5097946;28;20289;-54
2021/04/17 05:26:01;;;;;;;9.52;5.10;;;;;;;;;;5100242;28;20201;-50
2021/04/17 05:28:27;;;;;;;9.65;5.57;;;;;;;;;;5118720;28;20225;-50
2021/04/17 05:31:13;;;;;;;8.13;4.47;;;;;;;;;;5109278;28;20212;-55
2021/04/17 05:33:41;;;;;;;8.55;4.15;;;;;;;;;;5098026;28;20202;-52
2021/04/17 05:36:08;;;;;;;7.55;4.10;;;;;;;;;;5098019;28;20205;-53
2021/04/17 05:38:52;;;;;;;8.32;4.40;;;;;;;;;;5098347;28;20194;-58
2021/04/17 05:41:19;;;;;;;6.95;4.38;;;;;;;;;;5092265;28;20209;-50
2021/04/17 05:43:46;;;;;;;6.70;4.75;;;;;;;;;;5117664;28;20238;-55
2021/04/17 05:46:25;;;;;;;6.40;3.58;;;;;;;;;;5116786;28;20226;-56
2021/04/17 05:48:53;;;;;;;7.97;4.28;;;;;;;;;;5098119;28;20190;-54
2021/04/17 05:51:20;;;;;;;9.30;4.22;;;;;;;;;;5114799;28;20201;-52
2021/04/17 05:53:49;;;;;;;10.40;5.45;;;;;;;;;;5118319;28;20201;-56
2021/04/17 05:56:16;;;;;;;10.95;4.50;;;;;;;;;;5118480;28;20261;-52
2021/04/17 05:58:42;;;;;;;6.70;4.28;;;;;;;;;;5118559;28;20205;-51
2021/04/17 06:01:41;;;;;;;7.82;4.10;;;;;;;;;;5110137;28;20209;-52
2021/04/17 06:04:09;;;;;;;9.13;4.50;;;;;;;;;;5095082;28;20233;-51
2021/04/17 06:06:36;;;;;;;8.27;3.70;;;;;;;;;;5097387;28;20210;-53
2021/04/17 06:09:33;;;;;;;8.15;4.65;;;;;;;;;;5096789;28;20220;-55
2021/04/17 06:12:00;;;;;;;5.90;4.45;;;;;;;;;;5102600;28;20230;-57
2021/04/17 06:14:27;;;;;;;9.13;5.75;;;;;;;;;;5113430;28;20202;-50
2021/04/17 06:16:54;;;;;;;7.43;4.93;;;;;;;;;;5097563;28;20261;-49
2021/04/17 06:19:21;;;;;;;11.65;6.03;;;;;;;;;;5097294;28;20217;-53
2021/04/17 06:21:50;;;;;;;8.18;5.50;;;;;;;;;;5097249;28;20221;-57
2021/04/17 06:24:17;;;;;;;9.23;5.38;;;;;;;;;;5111315;28;20213;-49
2021/04/17 06:26:44;;;;;;;13.90;4.60;;;;;;;;;;5105949;28;20198;-55
2021/04/17 06:29:11;;;;;;;8.85;5.82;;;;;;;;;;5097277;28;20210;-57
2021/04/17 06:31:38;;;;;;;8.30;5.50;;;;;;;;;;5106114;28;20189;-53
2021/04/17 06:34:04;;;;;;;14.10;4.70;;;;;;;;;;5109048;28;20254;-53
2021/04/17 06:36:35;;;;;;;7.90;4.20;;;;;;;;;;5114038;28;20201;-52
2021/04/17 06:39:05;;;;;;;13.05;5.60;;;;;;;;;;5117405;28;20269;-55
2021/04/17 06:41:35;;;;;;;10.13;6.18;;;;;;;;;;5117367;28;20201;-55
2021/04/17 06:47:05;;;;;;;9.00;5.45;;;;;;;;;;5097642;28;20275;-57
2021/04/17 06:49:32;;;;;;;7.18;5.38;;;;;;;;;;5111752;28;20194;-56
2021/04/17 06:52:03;;;;;;;8.43;4.82;;;;;;;;;;5116684;28;20201;-52
2021/04/17 06:54:30;;;;;;;6.95;4.85;;;;;;;;;;5116649;28;20205;-59
2021/04/17 06:56:57;;;;;;;9.38;4.90;;;;;;;;;;5116750;28;20220;-55
2021/04/17 06:59:33;;;;;;;9.23;4.82;;;;;;;;;;5116694;28;20580;-56
2021/04/17 07:02:00;;;;;;;12.10;5.93;;;;;;;;;;5116725;28;20373;-52
2021/04/17 07:04:29;;;;;;;11.95;5.50;;;;;;;;;;5115848;28;20208;-53
2021/04/17 07:07:16;;;;;;;6.38;4.38;;;;;;;;;;5115380;28;20208;-59
2021/04/17 07:09:43;;;;;;;9.45;4.50;;;;;;;;;;5115935;28;20220;-55
2021/04/17 07:12:10;;;;;;;10.70;4.47;;;;;;;;;;5112530;28;20204;-58
2021/04/17 07:14:50;;;;;;;17.50;5.00;;;;;;;;;;5116133;28;20234;-54
2021/04/17 07:17:17;;;;;;;10.18;4.97;;;;;;;;;;5116437;28;20215;-55
2021/04/17 07:19:48;;;;;;;21.55;12.13;;;;;;;;;;5115870;28;20204;-57
2021/04/17 07:22:19;;;;;;;9.23;5.65;;;;;;;;;;5101426;28;20206;-58
2021/04/17 07:24:46;;;;;;;17.00;4.45;;;;;;;;;;5095673;28;20283;-55
2021/04/17 07:27:29;;;;;;;7.50;3.83;;;;;;;;;;5107993;28;20235;-60
2021/04/17 07:29:58;;;;;;;7.55;4.57;;;;;;;;;;5099615;28;20235;-58
2021/04/17 07:32:25;;;;;;;6.90;3.97;;;;;;;;;;5116010;28;20213;-56
2021/04/17 07:35:14;;;;;;;8.55;4.63;;;;;;;;;;5115642;28;20209;-57
2021/04/17 07:37:42;;;;;;;10.45;4.50;;;;;;;;;;5116008;28;20228;-50
2021/04/17 07:40:20;;;;;;;10.20;4.83;;;;;;;;;;5116407;28;20197;-60
2021/04/17 07:43:18;;;;;;;8.70;4.40;;;;;;;;;;5116638;28;20439;-54
2021/04/17 07:45:45;;;;;;;8.43;4.13;;;;;;;;;;5107003;28;20459;-56
2021/04/17 07:48:22;;;;;;;7.03;3.60;;;;;;;;;;5114983;28;20447;-59
2021/04/17 07:50:53;;;;;;;9.10;3.60;;;;;;;;;;5114821;28;20443;-57
2021/04/17 07:53:28;;;;;;;8.87;4.20;;;;;;;;;;5099427;28;20531;-52
2021/04/17 07:55:56;;;;;;;5.70;3.10;;;;;;;;;;5114807;28;20458;-55
2021/04/17 07:58:23;;;;;;;4.00;2.63;;;;;;;;;;5114615;28;20465;-55
2021/04/17 08:00:51;;;;;;;4.50;2.43;;;;;;;;;;5114812;28;20459;-52
2021/04/17 08:03:30;;;;;;;4.67;2.97;;;;;;;;;;5114357;28;20436;-57
2021/04/17 08:05:59;;;;;;;8.30;3.20;;;;;;;;;;5115000;28;20452;-61
2021/04/17 08:08:26;;;;;;;5.87;2.47;;;;;;;;;;5114260;28;20510;-53
2021/04/17 08:11:05;;;;;;;9.30;2.97;;;;;;;;;;5113843;28;20451;-57
2021/04/17 08:13:32;;;;;;;7.20;3.77;;;;;;;;;;5114830;28;20439;-57
2021/04/17 08:16:00;;;;;;;11.10;3.20;;;;;;;;;;5113821;28;20448;-61
2021/04/17 08:18:27;;;;;;;4.60;2.87;;;;;;;;;;5113522;28;20428;-61
2021/04/17 08:20:54;;;;;;;9.27;3.07;;;;;;;;;;5097551;28;20456;-57
2021/04/17 08:23:21;;;;;;;8.93;4.37;;;;;;;;;;5097634;28;20444;-56
2021/04/17 08:25:51;;;;;;;6.90;2.40;;;;;;;;;;5103557;28;20442;-51
2021/04/17 08:28:20;;;;;;;8.17;2.00;;;;;;;;;;5118297;28;20506;-56
2021/04/17 08:30:47;;;;;;;4.90;1.90;;;;;;;;;;5118303;28;20508;-60
2021/04/17 08:33:51;;;;;;;4.40;2.13;;;;;;;;;;5117422;28;20443;-54
2021/04/17 08:36:32;;;;;;;7.10;2.80;;;;;;;;;;5117674;28;20502;-59
2021/04/17 08:39:07;;;;;;;5.53;3.00;;;;;;;;;;5115719;28;20446;-56
2021/04/17 08:41:38;;;;;;;6.87;2.37;;;;;;;;;;5097958;28;20458;-55
2021/04/17 08:44:20;;;;;;;7.27;2.87;;;;;;;;;;5111787;28;20475;-60
2021/04/17 08:46:48;;;;;;;7.20;2.73;;;;;;;;;;5114719;28;20462;-56
2021/04/17 08:49:20;;;;;;;5.17;2.73;;;;;;;;;;5117286;28;20442;-58
2021/04/17 08:51:47;;;;;;;6.20;2.80;;;;;;;;;;5117741;28;20817;-58
2021/04/17 08:54:24;;;;;;;8.00;3.50;;;;;;;;;;5116903;28;20439;-59
2021/04/17 08:56:53;;;;;;;9.33;4.43;;;;;;;;;;5116290;28;20439;-53
2021/04/17 08:59:20;;;;;;;11.03;4.00;;;;;;;;;;5110263;28;20517;-55
2021/04/17 09:01:49;;;;;;;6.35;3.47;;;;;;;;;;5097166;28;20455;-51
2021/04/17 09:04:23;;;;;;;6.30;3.17;;;;;;;;;;5112900;28;20213;-58
2021/04/17 09:06:51;;;;;;;8.83;3.70;;;;;;;;;;5116354;28;20477;-52
2021/04/17 09:09:24;;;;;;;11.10;4.50;;;;;;;;;;5117232;28;20438;-60
2021/04/17 09:12:15;;;;;;;9.00;4.23;;;;;;;;;;5111132;28;20443;-59
2021/04/17 09:14:52;;;;;;;7.37;4.10;;;;;;;;;;5116736;28;20515;-55
2021/04/17 09:17:49;;;;;;;9.77;4.27;;;;;;;;;;5116317;28;20466;-54
2021/04/17 09:20:37;;;;;;;7.13;3.77;;;;;;;;;;5113086;28;20478;-58
2021/04/17 09:26:08;;;;;;;7.60;3.40;;;;;;;;;;5109961;28;20464;-54
2021/04/17 09:28:36;;;;;;;9.73;4.43;;;;;;;;;;5116934;28;20454;-60
2021/04/17 09:31:10;;;;;;;9.50;4.43;;;;;;;;;;5117775;28;20447;-52
2021/04/17 09:33:37;;;;;;;12.60;4.50;;;;;;;;;;5117733;28;20493;-53
2021/04/17 09:39:28;;;;;;;7.43;4.60;;;;;;;;;;5096965;28;20407;-61
2021/04/17 09:41:58;;;;;;;8.07;4.40;;;;;;;;;;5097004;28;20433;-58
2021/04/17 09:44:26;;;;;;;9.20;5.10;;;;;;;;;;5107707;28;20459;-54
2021/04/17 09:47:09;;;;;;;7.30;4.50;;;;;;;;;;5116506;28;20486;-59
2021/04/17 09:49:40;;;;;;;9.67;4.37;;;;;;;;;;5098985;28;20456;-60
2021/04/17 09:52:12;;;;;;;7.50;3.50;;;;;;;;;;5111670;28;20497;-60
2021/04/17 09:55:02;;;;;;;6.10;3.57;;;;;;;;;;5116143;28;20454;-53
2021/04/17 09:57:30;;;;;;;4.80;3.30;;;;;;;;;;5116038;28;20435;-61
2021/04/17 09:59:59;;;;;;;6.97;3.27;;;;;;;;;;5108283;28;20439;-55
2021/04/17 10:02:43;;;;;;;10.47;3.83;;;;;;;;;;5115598;28;20504;-55
2021/04/17 10:05:32;;;;;;;8.37;4.73;;;;;;;;;;5114956;28;20487;-62
2021/04/17 10:07:59;;;;;;;7.90;3.33;;;;;;;;;;5113011;28;20448;-52
2021/04/17 10:10:35;;;;;;;7.00;3.60;;;;;;;;;;5095701;28;20456;-51
2021/04/17 10:13:20;;;;;;;6.53;2.83;;;;;;;;;;5095340;28;20498;-59
2021/04/17 10:15:47;;;;;;;5.73;3.23;;;;;;;;;;5094914;28;20532;-58
2021/04/17 10:18:15;;;;;;;6.30;3.07;;;;;;;;;;5095039;28;20429;-55
2021/04/17 10:20:43;;;;;;;15.00;3.40;;;;;;;;;;5095326;28;20507;-60
2021/04/17 10:23:10;;;;;;;6.10;3.60;;;;;;;;;;5103303;28;20459;-55
2021/04/17 10:25:42;;;;;;;14.30;3.47;;;;;;;;;;5101395;28;20475;-56
2021/04/17 10:28:14;;;;;;;6.67;3.50;;;;;;;;;;5107793;28;20467;-57
2021/04/17 10:30:42;;;;;;;10.10;3.00;;;;;;;;;;5107548;28;20445;-56
2021/04/17 10:33:24;;;;;;;7.67;3.60;;;;;;;;;;5114493;28;20447;-59
2021/04/17 10:35:52;;;;;;;5.83;3.10;;;;;;;;;;5114904;28;20648;-57
2021/04/17 10:38:26;;;;;;;6.80;3.10;;;;;;;;;;5110107;28;20455;-59
2021/04/17 10:40:54;;;;;;;6.53;3.10;;;;;;;;;;5114467;28;20434;-59
2021/04/17 10:43:22;;;;;;;5.03;3.20;;;;;;;;;;5108701;28;20468;-59
2021/04/17 10:45:51;;;;;;;6.10;2.90;;;;;;;;;;5101763;28;20500;-57
2021/04/17 10:48:24;;;;;;;7.50;2.93;;;;;;;;;;5094787;28;20456;-56
2021/04/17 10:51:12;;;;;;;6.27;2.70;;;;;;;;;;5103057;28;20495;-57
2021/04/17 10:53:40;;;;;;;6.63;3.33;;;;;;;;;;5106846;28;20463;-59
2021/04/17 10:56:12;;;;;;;7.80;3.47;;;;;;;;;;5115170;28;20473;-58
2021/04/17 10:58:45;;;;;;;5.80;3.30;;;;;;;;;;5114995;28;20491;-59
2021/04/17 11:01:15;;;;;;;4.87;3.00;;;;;;;;;;5098325;28;20519;-57
2021/04/17 11:03:43;;;;;;;5.80;2.93;;;;;;;;;;5114899;28;20443;-59
2021/04/17 11:06:14;;;;;;;8.43;3.70;;;;;;;;;;5114056;28;20502;-59
2021/04/17 11:09:03;;;;;;;8.13;4.00;;;;;;;;;;5115171;28;20451;-55
2021/04/17 11:11:30;;;;;;;6.20;3.13;;;;;;;;;;5114860;28;20459;-54
2021/04/17 11:16:59;;;;;;;5.53;3.63;;;;;;;;;;5109151;28;20466;-53
2021/04/17 11:19:26;;;;;;;8.27;3.60;;;;;;;;;;5111654;28;20429;-57
2021/04/17 11:22:12;;;;;;;7.23;3.70;;;;;;;;;;5107917;28;20451;-54
2021/04/17 11:24:43;;;;;;;5.90;2.80;;;;;;;;;;5114009;28;20482;-62
2021/04/17 11:27:11;;;;;;;5.33;3.50;;;;;;;;;;5113776;28;20455;-59
2021/04/17 11:29:45;;;;;;;8.27;4.27;;;;;;;;;;5113810;28;20454;-50
2021/04/17 11:32:14;;;;;;;5.53;3.10;;;;;;;;;;5112465;28;20580;-59
2021/04/17 11:34:57;;;;;;;5.93;3.20;;;;;;;;;;5114680;28;20439;-56
2021/04/17 11:37:56;;;;;;;6.40;3.23;;;;;;;;;;5112443;28;20470;-54
2021/04/17 11:40:24;;;;;;;7.23;3.93;;;;;;;;;;5111109;28;20478;-59
2021/04/17 11:42:54;;;;;;;6.73;3.20;;;;;;;;;;5113256;28;20459;-59
2021/04/17 11:45:30;;;;;;;8.93;3.27;;;;;;;;;;5107719;28;20487;-61
2021/04/17 11:48:07;;;;;;;6.10;2.87;;;;;;;;;;5111833;28;20512;-59
2021/04/17 11:50:38;;;;;;;6.53;3.10;;;;;;;;;;5098698;28;20460;-51
2021/04/17 11:53:28;;;;;;;9.10;4.97;;;;;;;;;;5107381;28;20459;-56
2021/04/17 11:55:55;;;;;;;8.53;3.50;;;;;;;;;;5094114;28;20439;-54
2021/04/17 11:59:07;;;;;;;5.87;3.57;;;;;;;;;;5110046;28;20461;-57
2021/04/17 12:01:38;;;;;;;6.90;3.87;;;;;;;;;;5105815;28;20463;-61
2021/04/17 12:07:21;;;;;;;6.37;3.30;;;;;;;;;;5093699;28;20443;-59
2021/04/17 12:09:48;;;;;;;7.47;4.03;;;;;;;;;;5108738;28;20447;-60
2021/04/17 12:12:24;;;;;;;5.40;3.50;;;;;;;;;;5114194;28;20427;-54
2021/04/17 12:14:50;;;;;;;6.37;3.20;;;;;;;;;;5113668;28;20478;-52
2021/04/17 12:17:17;;;;;;;7.87;3.00;;;;;;;;;;5102887;28;20462;-60
2021/04/17 12:20:06;;;;;;;8.70;3.40;;;;;;;;;;5113776;28;20479;-56
2021/04/17 12:22:34;;;;;;;8.20;2.90;;;;;;;;;;5113265;28;20450;-53
2021/04/17 12:25:01;;;;;;;6.23;2.73;;;;;;;;;;5113807;28;20475;-60
2021/04/17 12:27:28;;;;;;;8.93;3.90;;;;;;;;;;5100896;28;20444;-59
2021/04/17 12:29:58;;;;;;;7.60;3.70;;;;;;;;;;5092743;28;20460;-63
2021/04/17 12:32:26;;;;;;;5.53;2.93;;;;;;;;;;5098546;28;20582;-58
2021/04/17 12:35:04;;;;;;;7.13;3.10;;;;;;;;;;5103583;28;20638;-57
2021/04/17 12:37:31;;;;;;;9.30;3.50;;;;;;;;;;5113703;28;20491;-58
2021/04/17 12:39:59;;;;;;;8.63;4.93;;;;;;;;;;5114389;28;20451;-58
2021/04/17 12:42:35;;;;;;;10.13;3.57;;;;;;;;;;5113741;28;20557;-57
2021/04/17 12:45:02;;;;;;;6.23;3.10;;;;;;;;;;5113397;28;20487;-54
2021/04/17 12:47:29;;;;;;;11.43;3.80;;;;;;;;;;5112871;28;20478;-55
2021/04/17 12:50:09;;;;;;;9.07;3.53;;;;;;;;;;5113097;28;20485;-54
2021/04/17 12:52:41;;;;;;;5.77;3.37;;;;;;;;;;5113269;28;20506;-62
2021/04/17 12:55:10;;;;;;;4.30;2.77;;;;;;;;;;5113172;28;20488;-61
2021/04/17 12:57:43;;;;;;;8.57;3.77;;;;;;;;;;5113525;28;20470;-56
2021/04/17 13:00:10;;;;;;;7.97;4.00;;;;;;;;;;5113728;28;20474;-52
2021/04/17 13:02:37;;;;;;;7.20;3.27;;;;;;;;;;5114607;28;20431;-57
2021/04/17 13:05:08;;;;;;;8.83;3.87;;;;;;;;;;5114276;28;20489;-53
2021/04/17 13:07:35;;;;;;;10.40;3.70;;;;;;;;;;5117335;28;20446;-57
2021/04/17 13:10:04;;;;;;;6.23;3.40;;;;;;;;;;5113589;28;20451;-57
2021/04/17 13:12:54;;;;;;;6.77;3.00;;;;;;;;;;5118114;28;20423;-57
2021/04/17 13:15:21;;;;;;;10.23;3.20;;;;;;;;;;5103476;28;20454;-53
2021/04/17 13:17:48;;;;;;;8.20;3.80;;;;;;;;;;5115483;28;20470;-53
2021/04/17 13:20:15;;;;;;;10.83;4.43;;;;;;;;;;5100896;28;20443;-57
2021/04/17 13:22:42;;;;;;;8.13;3.50;;;;;;;;;;5104060;28;20458;-56
2021/04/17 13:25:16;;;;;;;9.87;3.53;;;;;;;;;;5116156;28;20661;-59
2021/04/17 13:28:06;;;;;;;8.37;4.20;;;;;;;;;;5116943;28;20462;-58
2021/04/17 13:30:46;;;;;;;7.30;3.77;;;;;;;;;;5117101;28;20447;-59
2021/04/17 13:33:18;;;;;;;7.20;3.90;;;;;;;;;;5116590;28;20658;-53
2021/04/17 13:35:45;;;;;;;12.33;3.63;;;;;;;;;;5116017;28;20478;-55
2021/04/17 13:38:33;;;;;;;7.17;4.53;;;;;;;;;;5115012;28;20466;-56
2021/04/17 13:41:04;;;;;;;6.17;3.60;;;;;;;;;;5102731;28;20568;-57
2021/04/17 13:43:31;;;;;;;6.40;3.73;;;;;;;;;;5102331;28;20497;-58
2021/04/17 13:46:14;;;;;;;9.07;3.97;;;;;;;;;;5107735;28;20472;-54
2021/04/17 13:48:41;;;;;;;10.07;3.83;;;;;;;;;;5105599;28;20467;-55
2021/04/17 13:51:10;;;;;;;6.73;3.40;;;;;;;;;;5116255;28;20446;-56
2021/04/17 13:53:43;;;;;;;9.20;3.10;;;;;;;;;;5115104;28;20493;-58
2021/04/17 13:56:10;;;;;;;7.67;4.43;;;;;;;;;;5115336;28;20663;-61
2021/04/17 13:58:37;;;;;;;7.63;3.70;;;;;;;;;;5105500;28;20439;-58
2021/04/17 14:01:23;;;;;;;8.10;4.13;;;;;;;;;;5112555;28;20540;-57
2021/04/17 14:03:51;;;;;;;6.43;2.80;;;;;;;;;;5105640;28;20497;-59
2021/04/17 14:06:19;;;;;;;3.90;2.17;;;;;;;;;;5115310;28;20459;-57
2021/04/17 14:08:49;;;;;;;4.90;3.17;;;;;;;;;;5115769;28;20456;-59
2021/04/17 14:11:15;;;;;;;10.63;3.33;;;;;;;;;;5114499;28;20475;-53
2021/04/17 14:13:42;;;;;;;6.73;2.67;;;;;;;;;;5114728;28;20466;-60
2021/04/17 14:16:28;;;;;;;5.83;3.10;;;;;;;;;;5115560;28;20447;-59
2021/04/17 14:19:04;;;;;;;7.57;4.20;;;;;;;;;;5112697;28;20447;-56
2021/04/17 14:21:30;;;;;;;4.93;2.37;;;;;;;;;;5116282;28;20455;-57
2021/04/17 14:24:04;;;;;;;10.20;3.10;;;;;;;;;;5110132;28;20452;-59
2021/04/17 14:26:31;;;;;;;5.00;2.50;;;;;;;;;;5116038;28;20487;-55
2021/04/17 14:28:58;;;;;;;7.30;3.03;;;;;;;;;;5113601;28;20503;-58
2021/04/17 14:31:42;;;;;;;7.40;3.00;;;;;;;;;;5111365;28;20436;-56
2021/04/17 14:34:10;;;;;;;4.47;2.93;;;;;;;;;;5114615;28;20542;-61
2021/04/17 14:36:38;;;;;;;7.00;3.60;;;;;;;;;;5116487;28;20455;-60
2021/04/17 14:39:06;;;;;;;10.00;3.23;;;;;;;;;;5111590;28;20449;-56
2021/04/17 14:41:32;;;;;;;6.10;2.83;;;;;;;;;;5104768;28;20444;-59
2021/04/17 14:44:14;;;;;;;6.77;2.40;;;;;;;;;;5103859;28;20456;-60
2021/04/17 14:46:43;;;;;;;6.10;2.57;;;;;;;;;;5114949;28;20447;-59
2021/04/17 14:49:18;;;;;;;7.13;3.60;;;;;;;;;;5114582;28;20439;-60
2021/04/17 14:52:00;;;;;;;8.00;3.20;;;;;;;;;;5115515;28;20439;-53
2021/04/17 14:54:32;;;;;;;7.97;3.57;;;;;;;;;;5114066;28;20475;-58
2021/04/17 14:57:05;;;;;;;5.57;3.33;;;;;;;;;;5109921;28;20463;-57
2021/04/17 14:59:37;;;;;;;7.73;3.47;;;;;;;;;;5100733;28;20699;-58
2021/04/17 15:02:04;;;;;;;5.47;3.20;;;;;;;;;;5108056;28;20501;-56
2021/04/17 15:04:32;;;;;;;9.20;4.10;;;;;;;;;;5105903;28;20492;-59
2021/04/17 15:07:18;;;;;;;9.50;4.17;;;;;;;;;;5093761;28;20448;-53
2021/04/17 15:09:44;;;;;;;5.97;3.43;;;;;;;;;;5105470;28;20474;-57
2021/04/17 15:12:12;;;;;;;9.70;4.20;;;;;;;;;;5106716;28;20496;-57
2021/04/17 15:14:44;;;;;;;8.40;2.97;;;;;;;;;;5098624;28;20443;-49
2021/04/17 15:17:14;;;;;;;5.80;2.90;;;;;;;;;;5114952;28;20459;-58
2021/04/17 15:19:43;;;;;;;6.90;2.67;;;;;;;;;;5114636;28;20480;-58
2021/04/17 15:22:18;;;;;;;6.00;3.20;;;;;;;;;;5110309;28;20447;-60
2021/04/17 15:24:49;;;;;;;8.27;3.67;;;;;;;;;;5109627;28;20533;-58